Terminal Aerodrome Forecast
Issued by NWS

Home | Current Version | Previous Version | Text Only | Print | Product List | Glossary On
Versions: 1 2 3 4 5 6 7 8 9 10 11 12 13 14 15 16 17 18 19 20
000
FTUS45 KRIW 300528
TAFCPR
TAF
KCPR 300528Z 3006/0106 23006KT P6SM SKC
     FM301500 25011KT P6SM FEW100
     FM301900 27011KT P6SM SCT100
     FM010100 26008KT P6SM BKN100=

USA.gov is the U.S. government's official web portal to all federal, state and local government web resources and services.